This is the latest recevied weather packets stored in our database for station/object N8QQQ. If no packets are shown the sender has not sent any weather packets the latest 10 day(s).
| Time | Temp. | Humidity | Pressure | Rain* | Wind** | Luminosity | Snow |
|---|---|---|---|---|---|---|---|
| 1777770858 | 3.89° C | 56% | 1011.6 hPa | 0 mm | - | 0 W/m² | - |
| 1777770556 | 4.44° C | 56% | 1011.4 hPa | 0 mm | - | 1 W/m² | - |
| 1777770252 | 5° C | 53% | 1011.5 hPa | 0 mm | - | 1 W/m² | - |
| 1777769949 | 5.56° C | 49% | 1011.3 hPa | 0 mm | - | 2 W/m² | - |
| 1777769647 | 6.11° C | 46% | 1011.6 hPa | 0 mm | - | 3 W/m² | - |
| 1777769343 | 6.67° C | 42% | 1011.5 hPa | 0 mm | - | 4 W/m² | - |
| 1777769040 | 7.22° C | 42% | 1011.6 hPa | 0 mm | - | 6 W/m² | - |
| 1777768738 | 7.22° C | 41% | 1011.6 hPa | 0 mm | - | 8 W/m² | - |
| 1777768434 | 7.78° C | 40% | 1011.7 hPa | 0 mm | - | 10 W/m² | - |
| 1777768131 | 8.33° C | 39% | 1011.5 hPa | 0 mm | - | 12 W/m² | - |
| 1777767829 | 8.89° C | 39% | 1011.5 hPa | 0 mm | - | 15 W/m² | - |
| 1777767525 | 8.89° C | 39% | 1011.7 hPa | 0 mm | - | 21 W/m² | - |
| 1777767221 | 9.44° C | 37% | 1011.4 hPa | 0 mm | - | 26 W/m² | - |
| 1777766919 | 9.44° C | 38% | 1011.4 hPa | 0 mm | - | 32 W/m² | - |
| 1777766616 | 9.44° C | 37% | 1011.4 hPa | 0 mm | - | 37 W/m² | - |
| 1777766313 | 10° C | 37% | 1011.5 hPa | 0 mm | - | 33 W/m² | - |
| 1777766010 | 10° C | 36% | 1011.3 hPa | 0 mm | - | 41 W/m² | - |
| 1777765707 | 10° C | 35% | 1011.6 hPa | 0 mm | - | 52 W/m² | - |
| 1777765404 | 10° C | 34% | 1011.5 hPa | 0 mm | - | 48 W/m² | - |
| 1777765100 | 10.56° C | 35% | 1011.6 hPa | 0 mm | - | 49 W/m² | - |
| 1777764797 | 10.56° C | 35% | 1011.3 hPa | 0 mm | - | 55 W/m² | - |
| 1777764494 | 10.56° C | 35% | 1011.7 hPa | 0 mm | - | 59 W/m² | - |
| 1777764190 | 10.56° C | 33% | 1011.5 hPa | 0 mm | - | 65 W/m² | - |
| 1777763886 | 10.56° C | 34% | 1011.5 hPa | 0 mm | - | 76 W/m² | - |
| 1777763584 | 11.11° C | 34% | 1011.4 hPa | 0 mm | - | 67 W/m² | - |
* Rain latest hour (hover to see other rain measurements)
** Current wind speed in m/s (hover to see current wind gust speed)